createdAt,value
2018-06-20T00:02:27.792Z,8.83
2018-06-20T00:04:56.819Z,11.43
2018-06-20T00:07:25.918Z,8.97
2018-06-20T00:09:54.569Z,12.70
2018-06-20T00:12:23.547Z,10.33
2018-06-20T00:14:52.274Z,8.47
2018-06-20T00:17:20.902Z,7.50
2018-06-20T00:19:49.900Z,12.37
2018-06-20T00:22:18.955Z,14.17
2018-06-20T00:24:47.987Z,13.60
2018-06-20T00:27:16.977Z,11.60
2018-06-20T00:29:46.031Z,14.27
2018-06-20T00:32:15.074Z,14.67
2018-06-20T00:34:44.119Z,10.53
2018-06-20T00:37:13.201Z,12.83
2018-06-20T00:39:42.227Z,12.93
2018-06-20T00:42:10.949Z,10.33
2018-06-20T00:44:39.903Z,12.27
2018-06-20T00:47:08.599Z,13.53
2018-06-20T00:49:37.243Z,14.57
2018-06-20T00:52:06.236Z,14.07
2018-06-20T00:54:35.536Z,10.53
2018-06-20T00:57:04.623Z,22.10
2018-06-20T00:59:33.338Z,13.70
2018-06-20T01:02:02.075Z,13.77
2018-06-20T01:04:31.031Z,10.37
2018-06-20T01:07:00.270Z,9.33
2018-06-20T01:09:28.959Z,13.70
2018-06-20T01:11:57.673Z,15.27
2018-06-20T01:14:26.519Z,21.40
2018-06-20T01:16:55.569Z,24.20
2018-06-20T01:19:24.286Z,15.53
2018-06-20T01:21:52.902Z,47.33
2018-06-20T01:24:21.538Z,87.17
2018-06-20T01:26:50.503Z,62.70
2018-06-20T01:29:19.198Z,15.00
2018-06-20T01:31:47.831Z,37.67
2018-06-20T01:34:16.770Z,52.17
2018-06-20T01:36:45.807Z,35.37
2018-06-20T01:39:14.864Z,23.43
2018-06-20T01:41:44.147Z,163.23
2018-06-20T01:44:12.862Z,39.47
2018-06-20T01:46:41.567Z,23.33
2018-06-20T01:49:10.202Z,19.03
2018-06-20T01:51:39.159Z,24.17
2018-06-20T01:54:08.215Z,23.20
2018-06-20T01:56:36.959Z,17.70
2018-06-20T01:59:06.074Z,20.33
2018-06-20T02:01:34.787Z,15.70
2018-06-20T02:04:03.771Z,14.30
2018-06-20T02:06:32.486Z,52.87
2018-06-20T02:09:01.178Z,57.80
2018-06-20T02:11:31.099Z,44.07
2018-06-20T02:14:00.264Z,44.60
2018-06-20T02:16:29.304Z,39.87
2018-06-20T02:18:58.355Z,18.87
2018-06-20T02:21:27.410Z,39.33
2018-06-20T02:23:56.451Z,25.40
2018-06-20T02:26:25.166Z,34.50
2018-06-20T02:28:53.799Z,22.17
2018-06-20T02:31:22.401Z,16.57
2018-06-20T02:33:51.356Z,24.27
2018-06-20T02:36:25.361Z,19.83
2018-06-20T02:38:54.034Z,14.77
2018-06-20T02:41:22.652Z,12.50
2018-06-20T02:43:51.590Z,13.97
2018-06-20T02:46:20.322Z,11.97
2018-06-20T02:48:49.292Z,9.33
2018-06-20T02:51:18.332Z,8.63
2018-06-20T02:53:47.397Z,8.67
2018-06-20T02:56:16.475Z,9.40
2018-06-20T02:58:45.496Z,11.40
2018-06-20T03:01:14.531Z,8.93
2018-06-20T03:03:43.574Z,9.13
2018-06-20T03:06:12.656Z,10.53
2018-06-20T03:08:41.719Z,10.17
2018-06-20T03:11:10.426Z,9.17
2018-06-20T03:13:39.069Z,10.67
2018-06-20T03:16:08.026Z,10.10
2018-06-20T03:18:36.750Z,9.03
2018-06-20T03:21:05.808Z,11.43
2018-06-20T03:23:34.860Z,10.33
2018-06-20T03:26:03.590Z,8.47
2018-06-20T03:28:32.540Z,8.80
2018-06-20T03:31:01.240Z,7.53
2018-06-20T03:33:29.897Z,8.83
2018-06-20T03:35:58.542Z,7.57
2018-06-20T03:38:27.495Z,7.50
2018-06-20T03:40:56.568Z,6.53
2018-06-20T03:43:25.609Z,8.23
2018-06-20T03:45:54.644Z,8.50
2018-06-20T03:48:23.348Z,6.50
2018-06-20T03:50:52.093Z,11.80
2018-06-20T03:53:21.067Z,7.37
2018-06-20T03:55:50.136Z,7.60
2018-06-20T03:58:19.224Z,6.00
2018-06-20T04:00:47.930Z,6.97
2018-06-20T04:03:16.892Z,7.60
2018-06-20T04:05:45.919Z,9.07
2018-06-20T04:08:14.963Z,6.93
2018-06-20T04:10:43.681Z,5.60
2018-06-20T04:13:12.608Z,5.13
2018-06-20T04:15:41.630Z,5.10
2018-06-20T04:18:10.336Z,5.93
2018-06-20T04:20:39.312Z,7.87
2018-06-20T04:23:08.384Z,8.33
2018-06-20T04:25:37.415Z,7.50
2018-06-20T04:28:06.505Z,6.70
2018-06-20T04:30:35.468Z,8.40
2018-06-20T04:33:04.515Z,7.40
2018-06-20T04:35:33.580Z,8.67
2018-06-20T04:38:02.617Z,7.93
2018-06-20T04:40:31.651Z,8.13
2018-06-20T04:43:00.346Z,7.40
2018-06-20T04:45:28.959Z,6.30
2018-06-20T04:47:57.593Z,7.27
2018-06-20T04:50:26.527Z,6.20
2018-06-20T04:52:55.577Z,10.33
2018-06-20T04:55:24.649Z,5.93
2018-06-20T04:57:53.687Z,6.57
2018-06-20T05:00:22.404Z,7.07
2018-06-20T05:02:51.052Z,4.20
2018-06-20T05:05:19.990Z,3.87
2018-06-20T05:07:48.701Z,3.63
2018-06-20T05:10:17.359Z,4.73
2018-06-20T05:12:46.304Z,6.83
2018-06-20T05:15:15.044Z,3.17
2018-06-20T05:17:44.001Z,3.73
2018-06-20T05:20:13.259Z,3.30
2018-06-20T05:22:42.370Z,2.20
2018-06-20T05:25:10.998Z,2.43
2018-06-20T05:27:39.943Z,2.20
2018-06-20T05:30:08.988Z,3.00
2018-06-20T05:32:38.051Z,2.10
2018-06-20T05:35:07.121Z,2.70
2018-06-20T05:37:35.827Z,2.47
2018-06-20T05:40:05.632Z,1.67
2018-06-20T05:42:34.730Z,2.13
2018-06-20T05:45:03.859Z,1.77
2018-06-20T05:47:32.595Z,2.83
2018-06-20T05:50:01.228Z,2.93
2018-06-20T05:52:29.895Z,2.27
2018-06-20T05:54:59.208Z,1.87
2018-06-20T05:57:28.118Z,1.50
2018-06-20T05:59:57.092Z,2.17
2018-06-20T06:02:25.835Z,2.10
2018-06-20T06:04:54.825Z,1.70
2018-06-20T06:07:23.864Z,3.73
2018-06-20T06:09:52.919Z,2.80
2018-06-20T06:12:21.956Z,1.30
2018-06-20T06:14:50.658Z,1.33
2018-06-20T06:17:19.659Z,1.27
2018-06-20T06:19:48.412Z,1.20
2018-06-20T06:22:17.585Z,3.00
2018-06-20T06:24:46.290Z,2.00
2018-06-20T06:27:14.915Z,1.13
2018-06-20T06:29:43.844Z,1.27
2018-06-20T06:32:12.663Z,1.70
2018-06-20T06:34:41.304Z,1.17
2018-06-20T06:37:10.273Z,0.70
2018-06-20T06:39:39.063Z,1.03
2018-06-20T06:42:07.874Z,1.27
2018-06-20T06:44:36.535Z,1.50
2018-06-20T06:47:05.192Z,1.93
2018-06-20T06:49:34.183Z,2.53
2018-06-20T06:52:03.218Z,4.63
2018-06-20T06:54:32.399Z,2.33
2018-06-20T06:57:01.617Z,2.40
2018-06-20T06:59:30.668Z,1.37
2018-06-20T07:01:59.379Z,0.60
2018-06-20T07:04:27.981Z,1.90
2018-06-20T07:06:57.064Z,2.43
2018-06-20T07:09:26.640Z,0.93
2018-06-20T07:11:55.249Z,1.37
2018-06-20T07:14:23.886Z,3.13
2018-06-20T07:16:52.867Z,2.00
2018-06-20T07:19:21.493Z,0.60
2018-06-20T07:21:50.111Z,1.37
2018-06-20T07:24:19.124Z,1.23
2018-06-20T07:26:48.322Z,1.10
2018-06-20T07:29:17.360Z,0.50
2018-06-20T07:31:46.117Z,1.13
2018-06-20T07:34:14.817Z,2.83
2018-06-20T07:36:43.702Z,1.10
2018-06-20T07:39:12.730Z,1.00
2018-06-20T07:41:41.339Z,3.40
2018-06-20T07:44:09.976Z,2.03
2018-06-20T07:46:38.892Z,0.70
2018-06-20T07:49:07.497Z,1.90
2018-06-20T07:51:36.326Z,0.60
2018-06-20T07:54:05.016Z,30.37
2018-06-20T07:56:33.692Z,1.30
2018-06-20T07:59:02.379Z,0.93
2018-06-20T08:01:41.835Z,1.30
2018-06-20T08:04:16.147Z,1.83
2018-06-20T08:06:50.187Z,0.97
2018-06-20T08:09:24.086Z,2.30
2018-06-20T08:11:57.934Z,1.40
2018-06-20T08:14:32.280Z,1.30
2018-06-20T08:17:06.396Z,1.90
2018-06-20T08:19:40.575Z,1.50
2018-06-20T08:22:09.187Z,1.53
2018-06-20T08:24:42.222Z,2.07
2018-06-20T08:27:11.160Z,3.40
2018-06-20T08:29:40.197Z,1.70
2018-06-20T08:32:08.919Z,3.10
2018-06-20T08:34:37.888Z,3.63
2018-06-20T08:37:07.132Z,2.47
2018-06-20T08:39:35.836Z,2.80
2018-06-20T08:42:05.163Z,1.70
2018-06-20T08:44:33.883Z,2.30
2018-06-20T08:47:02.856Z,1.40
2018-06-20T08:49:31.567Z,4.00
2018-06-20T08:52:00.496Z,1.90
2018-06-20T08:54:29.398Z,2.57
2018-06-20T08:56:58.215Z,3.60
2018-06-20T08:59:27.164Z,3.07
2018-06-20T09:01:56.196Z,1.43
2018-06-20T09:06:36.996Z,3.30
2018-06-20T09:09:12.015Z,1.80
2018-06-20T09:11:46.279Z,1.67
2018-06-20T09:14:15.167Z,3.40
2018-06-20T09:16:49.515Z,2.53
2018-06-20T09:19:23.604Z,3.50
2018-06-20T09:21:52.569Z,2.23
2018-06-20T09:24:21.282Z,5.57
2018-06-20T09:26:49.950Z,1.73
2018-06-20T09:29:18.911Z,2.60
2018-06-20T09:31:47.691Z,3.03
2018-06-20T09:34:16.330Z,1.37
2018-06-20T09:36:44.946Z,2.93
2018-06-20T09:39:13.888Z,5.13
2018-06-20T09:41:42.594Z,3.10
2018-06-20T09:44:11.226Z,2.83
2018-06-20T09:46:40.195Z,3.37
2018-06-20T09:49:09.021Z,3.50
2018-06-20T09:51:38.387Z,2.67
2018-06-20T09:54:07.091Z,2.80
2018-06-20T09:56:35.713Z,2.03
2018-06-20T09:59:09.592Z,3.30
2018-06-20T10:01:43.487Z,2.33
2018-06-20T10:04:17.669Z,1.80
2018-06-20T10:06:51.867Z,1.77
2018-06-20T10:09:25.909Z,2.77
2018-06-20T10:11:59.918Z,3.77
2018-06-20T10:14:28.880Z,2.93
2018-06-20T10:16:57.600Z,1.60
2018-06-20T10:19:26.568Z,2.83
2018-06-20T10:21:55.863Z,1.97
2018-06-20T10:24:24.802Z,5.30
2018-06-20T10:26:53.985Z,3.80
2018-06-20T10:29:23.132Z,1.57
2018-06-20T10:31:52.153Z,1.10
2018-06-20T10:34:20.893Z,4.33
2018-06-20T10:36:49.831Z,4.63
2018-06-20T10:39:18.531Z,1.90
2018-06-20T10:41:47.175Z,1.43
2018-06-20T10:44:16.795Z,0.80
2018-06-20T10:46:51.127Z,0.90
2018-06-20T10:49:20.234Z,1.70
2018-06-20T10:51:48.881Z,1.90
2018-06-20T10:54:17.495Z,4.40
2018-06-20T10:56:51.919Z,3.87
2018-06-20T10:59:26.231Z,1.93
2018-06-20T11:02:00.509Z,1.23
2018-06-20T11:04:35.461Z,2.93
2018-06-20T11:07:09.763Z,3.80
2018-06-20T11:09:43.864Z,2.03
2018-06-20T11:12:17.984Z,2.33
2018-06-20T11:14:46.919Z,1.00
2018-06-20T11:17:15.619Z,2.07
2018-06-20T11:19:44.235Z,2.70
2018-06-20T11:22:12.887Z,2.63
2018-06-20T11:24:41.831Z,3.43
2018-06-20T11:27:10.531Z,5.03
2018-06-20T11:29:39.146Z,4.63
2018-06-20T11:32:07.804Z,2.43
2018-06-20T11:34:36.746Z,2.63
2018-06-20T11:37:05.474Z,1.97
2018-06-20T11:39:35.062Z,2.37
2018-06-20T11:42:03.744Z,2.77
2018-06-20T11:44:32.691Z,3.27
2018-06-20T11:47:07.035Z,4.17
2018-06-20T11:49:36.069Z,2.17
2018-06-20T11:52:09.070Z,5.23
2018-06-20T11:54:37.708Z,3.17
2018-06-20T11:57:06.355Z,3.97
2018-06-20T11:59:40.596Z,3.53
2018-06-20T12:02:14.787Z,3.43
2018-06-20T12:04:48.958Z,2.90
2018-06-20T12:07:23.239Z,4.50
2018-06-20T12:09:57.527Z,4.17
2018-06-20T12:12:31.860Z,3.60
2018-06-20T12:28:01.105Z,2.30
2018-06-20T12:30:35.184Z,1.43
2018-06-20T12:33:09.129Z,4.00
2018-06-20T12:35:43.487Z,2.20
2018-06-20T12:38:17.565Z,1.50
2018-06-20T12:40:51.833Z,5.67
2018-06-20T12:43:25.947Z,1.37
2018-06-20T12:46:00.588Z,2.73
2018-06-20T12:48:29.357Z,2.80
2018-06-20T12:50:58.330Z,2.10
2018-06-20T12:53:27.391Z,2.40
2018-06-20T12:55:56.096Z,1.30
2018-06-20T12:58:25.050Z,2.10
2018-06-20T13:00:54.100Z,1.20
2018-06-20T13:03:23.127Z,2.07
2018-06-20T13:05:52.184Z,3.13
2018-06-20T13:08:20.817Z,2.87
2018-06-20T13:10:49.438Z,3.33
2018-06-20T13:13:18.407Z,6.10
2018-06-20T13:15:47.273Z,2.60
2018-06-20T13:18:16.201Z,2.83
2018-06-20T13:20:44.935Z,3.67
2018-06-20T13:23:13.570Z,4.13
2018-06-20T13:25:42.186Z,2.67
2018-06-20T13:28:11.136Z,2.27
2018-06-20T13:30:39.868Z,5.70
2018-06-20T13:33:13.899Z,5.47
2018-06-20T13:35:48.034Z,4.37
2018-06-20T13:38:22.151Z,3.10
2018-06-20T13:40:56.596Z,2.13
2018-06-20T13:43:30.959Z,3.73
2018-06-20T13:46:04.931Z,2.30
2018-06-20T13:48:35.248Z,4.70
2018-06-20T13:51:03.980Z,4.40
2018-06-20T13:53:32.924Z,5.67
2018-06-20T13:56:01.628Z,2.50
2018-06-20T13:58:30.284Z,4.67
2018-06-20T14:00:59.147Z,3.33
2018-06-20T14:03:27.766Z,3.13
2018-06-20T14:05:56.391Z,3.67
2018-06-20T14:08:25.322Z,4.37
2018-06-20T14:10:54.351Z,5.97
2018-06-20T14:13:23.064Z,5.03
2018-06-20T14:15:51.686Z,3.80
2018-06-20T14:18:20.315Z,4.90
2018-06-20T14:20:54.408Z,6.20
2018-06-20T14:23:23.136Z,9.33
2018-06-20T14:25:51.746Z,6.03
2018-06-20T14:28:20.394Z,5.43
2018-06-20T14:31:55.932Z,7.40
2018-06-20T14:34:30.464Z,5.37
2018-06-20T14:37:04.424Z,4.53
2018-06-20T14:39:38.310Z,4.57
2018-06-20T14:42:12.355Z,5.50
2018-06-20T14:44:41.124Z,5.30
2018-06-20T14:47:09.760Z,4.70
2018-06-20T14:49:38.488Z,4.00
2018-06-20T14:52:07.127Z,3.17
2018-06-20T14:54:35.735Z,5.63
2018-06-20T14:57:04.724Z,6.33
2018-06-20T14:59:33.495Z,6.03
2018-06-20T15:02:02.124Z,5.10
2018-06-20T15:04:30.726Z,3.60
2018-06-20T15:06:59.446Z,5.23
2018-06-20T15:09:27.994Z,6.47
2018-06-20T15:11:56.622Z,5.20
2018-06-20T15:14:25.635Z,10.10
2018-06-20T15:16:59.540Z,8.73
2018-06-20T15:19:28.198Z,6.43
2018-06-20T15:21:57.115Z,6.70
2018-06-20T15:24:26.164Z,7.33
2018-06-20T15:27:00.628Z,6.40
2018-06-20T15:29:34.694Z,7.27
2018-06-20T15:32:08.827Z,6.00
2018-06-20T15:34:42.775Z,4.57
2018-06-20T15:37:16.939Z,5.07
2018-06-20T15:39:45.984Z,4.87
2018-06-20T15:42:15.035Z,4.00
2018-06-20T15:44:43.766Z,8.90
2018-06-20T15:47:12.723Z,2.37
2018-06-20T15:49:41.445Z,3.57
2018-06-20T15:52:10.399Z,4.07
2018-06-20T15:54:39.202Z,4.50
2018-06-20T15:57:14.478Z,5.67
2018-06-20T15:59:43.414Z,3.90
2018-06-20T16:02:12.443Z,4.80
2018-06-20T16:04:41.179Z,6.37
2018-06-20T16:07:09.817Z,7.20
2018-06-20T16:09:43.818Z,4.97
2018-06-20T16:12:12.467Z,5.60
2018-06-20T16:14:41.383Z,5.73
2018-06-20T16:17:10.451Z,8.27
2018-06-20T16:19:44.539Z,7.13
2018-06-20T16:24:23.036Z,4.90
2018-06-20T16:26:57.059Z,5.97
2018-06-20T16:29:31.012Z,4.87
2018-06-20T16:31:59.642Z,6.67
2018-06-20T16:34:28.284Z,8.57
2018-06-20T16:36:57.231Z,2.50
2018-06-20T16:39:26.153Z,4.70
2018-06-20T16:41:55.139Z,4.20
2018-06-20T16:44:24.187Z,5.20
2018-06-20T16:46:52.890Z,4.93
2018-06-20T16:49:21.497Z,4.10
2018-06-20T16:51:50.491Z,3.20
2018-06-20T16:54:19.231Z,3.53
2018-06-20T16:56:48.163Z,5.83
2018-06-20T16:59:16.878Z,3.87
2018-06-20T17:01:51.135Z,6.07
2018-06-20T17:04:19.882Z,3.97
2018-06-20T17:06:48.520Z,6.40
2018-06-20T17:09:19.460Z,4.77
2018-06-20T17:11:55.694Z,4.50
2018-06-20T17:14:29.995Z,3.70
2018-06-20T17:17:04.144Z,4.80
2018-06-20T17:19:38.427Z,7.20
2018-06-20T17:22:12.387Z,4.57
2018-06-20T17:24:46.827Z,4.37
2018-06-20T17:27:15.536Z,6.13
2018-06-20T17:29:44.194Z,8.87
2018-06-20T17:32:13.344Z,5.30
2018-06-20T17:34:42.295Z,7.13
2018-06-20T17:37:11.340Z,6.37
2018-06-20T17:39:40.040Z,6.10
2018-06-20T17:42:09.088Z,8.17
2018-06-20T17:44:38.167Z,5.97
2018-06-20T17:47:06.903Z,7.37
2018-06-20T17:49:35.739Z,8.37
2018-06-20T17:52:05.028Z,6.00
2018-06-20T17:54:34.089Z,9.40
2018-06-20T17:57:02.787Z,6.30
2018-06-20T17:59:31.435Z,6.80
2018-06-20T18:02:00.087Z,7.87
2018-06-20T18:04:33.982Z,11.40
2018-06-20T18:07:07.875Z,10.90
2018-06-20T18:09:42.107Z,10.13
2018-06-20T18:12:16.132Z,12.07
2018-06-20T18:14:50.187Z,10.07
2018-06-20T18:17:19.123Z,6.30
2018-06-20T18:19:47.840Z,7.97
2018-06-20T18:22:16.639Z,11.33
2018-06-20T18:24:45.605Z,11.17
2018-06-20T18:27:14.678Z,8.67
2018-06-20T18:29:43.409Z,9.63
2018-06-20T18:32:12.359Z,10.57
2018-06-20T18:34:41.175Z,9.43
2018-06-20T18:37:10.137Z,9.87
2018-06-20T18:39:44.277Z,11.37
2018-06-20T18:42:13.199Z,6.53
2018-06-20T18:44:42.274Z,7.20
2018-06-20T18:47:15.306Z,10.20
2018-06-20T18:49:43.965Z,6.57
2018-06-20T18:52:12.940Z,12.23
2018-06-20T18:54:41.595Z,22.43
2018-06-20T18:57:14.595Z,26.30
2018-06-20T18:59:48.456Z,28.83
2018-06-20T19:02:22.338Z,12.17
2018-06-20T19:04:56.648Z,9.67
2018-06-20T19:07:30.711Z,25.03
2018-06-20T19:09:59.679Z,29.37
2018-06-20T19:12:28.543Z,10.60
2018-06-20T19:14:57.410Z,15.37
2018-06-20T19:17:26.149Z,25.53
2018-06-20T19:19:54.845Z,41.40
2018-06-20T19:22:23.723Z,31.67
2018-06-20T19:24:52.362Z,37.13
2018-06-20T19:27:20.992Z,24.70
2018-06-20T19:29:49.614Z,14.43
2018-06-20T19:32:18.297Z,24.97
2018-06-20T19:34:47.583Z,34.57
2018-06-20T19:37:16.635Z,25.70
2018-06-20T19:39:51.398Z,24.80
2018-06-20T19:42:22.316Z,36.40
2018-06-20T19:44:51.461Z,46.57
2018-06-20T19:47:20.060Z,35.33
2018-06-20T19:49:49.040Z,33.20
2018-06-20T19:52:18.111Z,40.50
2018-06-20T19:54:47.520Z,29.17
2018-06-20T19:57:16.242Z,22.33
2018-06-20T19:59:45.210Z,32.43
2018-06-20T20:02:14.218Z,51.23
2018-06-20T20:04:42.957Z,50.67
2018-06-20T20:07:11.571Z,24.63
2018-06-20T20:09:40.528Z,44.40
2018-06-20T20:12:09.268Z,32.50
2018-06-20T20:14:38.264Z,35.90
2018-06-20T20:17:06.992Z,42.20
2018-06-20T20:19:35.958Z,45.83
2018-06-20T20:22:04.683Z,56.13
2018-06-20T20:24:33.311Z,67.77
2018-06-20T20:27:02.281Z,82.03
2018-06-20T20:29:31.387Z,46.73
2018-06-20T20:32:00.109Z,35.23
2018-06-20T20:34:28.768Z,69.23
2018-06-20T20:36:57.380Z,100.93
2018-06-20T20:39:26.540Z,79.03
2018-06-20T20:41:55.301Z,37.90
2018-06-20T20:44:24.260Z,39.13
2018-06-20T20:46:53.003Z,41.63
2018-06-20T20:49:21.693Z,34.73
2018-06-20T20:51:50.647Z,46.03
2018-06-20T20:54:19.359Z,34.93
2018-06-20T20:56:48.291Z,39.40
2018-06-20T20:59:17.339Z,45.50
2018-06-20T21:01:46.063Z,48.27
2018-06-20T21:04:14.723Z,35.63
2018-06-20T21:06:43.399Z,48.00
2018-06-20T21:09:12.359Z,33.80
2018-06-20T21:11:41.389Z,25.23
2018-06-20T21:14:10.495Z,41.60
2018-06-20T21:16:39.237Z,30.07
2018-06-20T21:19:08.203Z,19.50
2018-06-20T21:21:36.976Z,31.17
2018-06-20T21:24:05.995Z,13.83
2018-06-20T21:26:34.682Z,20.17
2018-06-20T21:29:03.346Z,30.90
2018-06-20T21:31:32.013Z,14.90
2018-06-20T21:34:00.991Z,25.47
2018-06-20T21:36:30.042Z,18.90
2018-06-20T21:38:59.407Z,18.97
2018-06-20T21:41:28.463Z,36.93
2018-06-20T21:43:57.524Z,56.60
2018-06-20T21:46:26.575Z,30.83
2018-06-20T21:48:55.294Z,42.37
2018-06-20T21:51:23.963Z,33.27
2018-06-20T21:53:52.900Z,28.83
2018-06-20T21:56:22.262Z,24.63
2018-06-20T21:58:51.296Z,36.60
2018-06-20T22:01:20.016Z,45.00
2018-06-20T22:03:48.959Z,42.07
2018-06-20T22:06:18.339Z,49.00
2018-06-20T22:08:47.398Z,69.17
2018-06-20T22:11:16.223Z,45.23
2018-06-20T22:13:45.188Z,36.23
2018-06-20T22:16:13.907Z,28.03
2018-06-20T22:18:42.906Z,53.30
2018-06-20T22:21:11.963Z,37.17
2018-06-20T22:23:41.011Z,30.63
2018-06-20T22:26:10.049Z,38.93
2018-06-20T22:28:39.083Z,32.20
2018-06-20T22:31:07.811Z,46.80
2018-06-20T22:33:36.459Z,48.10
2018-06-20T22:36:05.435Z,49.07
2018-06-20T22:38:34.183Z,80.53
2018-06-20T22:41:03.527Z,67.27
2018-06-20T22:43:32.263Z,72.33
2018-06-20T22:46:01.288Z,62.70
2018-06-20T22:48:30.364Z,47.37
2018-06-20T22:50:59.416Z,44.20
2018-06-20T22:53:28.222Z,35.03
2018-06-20T22:55:57.092Z,39.90
2018-06-20T22:58:26.263Z,33.13
2018-06-20T23:00:55.352Z,33.10
2018-06-20T23:03:24.194Z,30.03
2018-06-20T23:05:53.176Z,30.47
2018-06-20T23:08:22.287Z,36.43
2018-06-20T23:10:51.351Z,38.77
2018-06-20T23:13:20.409Z,42.13
2018-06-20T23:15:49.560Z,43.83
2018-06-20T23:18:18.620Z,36.80
2018-06-20T23:20:47.682Z,34.70
2018-06-20T23:23:16.751Z,30.50
2018-06-20T23:25:46.455Z,34.83
2018-06-20T23:28:15.532Z,31.57
2018-06-20T23:30:44.595Z,29.83
2018-06-20T23:33:13.475Z,31.27
2018-06-20T23:35:42.441Z,26.10
2018-06-20T23:38:11.725Z,28.70
2018-06-20T23:40:40.772Z,29.03
2018-06-20T23:43:15.918Z,27.87
2018-06-20T23:45:44.944Z,30.80
2018-06-20T23:48:13.995Z,32.27
2018-06-20T23:50:43.044Z,34.87
2018-06-20T23:53:11.782Z,34.30
2018-06-20T23:55:40.760Z,28.17
2018-06-20T23:58:10.148Z,23.17
